sensor_id;sensor_type;location;lat;lon;timestamp;P1;durP1;ratioP1;P2;durP2;ratioP2
56037;SDS011;41907;47.848;9.000;2023-02-13T00:00:19;42.35;;;16.75;;
56037;SDS011;41907;47.848;9.000;2023-02-13T00:02:47;40.47;;;16.45;;
56037;SDS011;41907;47.848;9.000;2023-02-13T00:05:12;42.65;;;17.10;;
56037;SDS011;41907;47.848;9.000;2023-02-13T00:07:38;39.88;;;17.25;;
56037;SDS011;41907;47.848;9.000;2023-02-13T00:10:03;41.25;;;17.23;;
56037;SDS011;41907;47.848;9.000;2023-02-13T00:12:29;38.13;;;16.55;;
56037;SDS011;41907;47.848;9.000;2023-02-13T00:14:54;37.67;;;17.10;;
56037;SDS011;41907;47.848;9.000;2023-02-13T00:17:20;40.70;;;17.75;;
56037;SDS011;41907;47.848;9.000;2023-02-13T00:19:45;39.05;;;17.02;;
56037;SDS011;41907;47.848;9.000;2023-02-13T00:22:10;40.17;;;17.42;;
56037;SDS011;41907;47.848;9.000;2023-02-13T00:24:36;37.20;;;15.95;;
56037;SDS011;41907;47.848;9.000;2023-02-13T00:27:01;40.58;;;17.23;;
56037;SDS011;41907;47.848;9.000;2023-02-13T00:29:27;37.78;;;16.35;;
56037;SDS011;41907;47.848;9.000;2023-02-13T00:31:52;34.95;;;16.08;;
56037;SDS011;41907;47.848;9.000;2023-02-13T00:34:17;38.58;;;16.20;;
56037;SDS011;41907;47.848;9.000;2023-02-13T00:36:43;37.78;;;16.13;;
56037;SDS011;41907;47.848;9.000;2023-02-13T00:39:10;43.05;;;17.52;;
56037;SDS011;41907;47.848;9.000;2023-02-13T00:41:36;36.20;;;16.17;;
56037;SDS011;41907;47.848;9.000;2023-02-13T00:44:01;36.28;;;15.93;;
56037;SDS011;41907;47.848;9.000;2023-02-13T00:46:26;37.58;;;17.05;;
56037;SDS011;41907;47.848;9.000;2023-02-13T00:48:52;35.67;;;15.40;;
56037;SDS011;41907;47.848;9.000;2023-02-13T00:51:17;34.15;;;15.40;;
56037;SDS011;41907;47.848;9.000;2023-02-13T00:53:43;35.25;;;14.35;;
56037;SDS011;41907;47.848;9.000;2023-02-13T00:56:08;36.58;;;17.25;;
56037;SDS011;41907;47.848;9.000;2023-02-13T00:58:33;41.53;;;16.25;;
56037;SDS011;41907;47.848;9.000;2023-02-13T01:00:59;38.00;;;14.90;;
56037;SDS011;41907;47.848;9.000;2023-02-13T01:03:24;34.75;;;16.27;;
56037;SDS011;41907;47.848;9.000;2023-02-13T01:05:50;35.70;;;14.43;;
56037;SDS011;41907;47.848;9.000;2023-02-13T01:08:17;33.00;;;14.90;;
56037;SDS011;41907;47.848;9.000;2023-02-13T01:10:44;35.13;;;14.80;;
56037;SDS011;41907;47.848;9.000;2023-02-13T01:13:10;33.85;;;15.00;;
56037;SDS011;41907;47.848;9.000;2023-02-13T01:15:38;44.40;;;16.42;;
56037;SDS011;41907;47.848;9.000;2023-02-13T01:18:04;37.67;;;16.17;;
56037;SDS011;41907;47.848;9.000;2023-02-13T01:20:29;39.25;;;15.70;;
56037;SDS011;41907;47.848;9.000;2023-02-13T01:22:55;34.78;;;15.68;;
56037;SDS011;41907;47.848;9.000;2023-02-13T01:25:21;30.30;;;14.55;;
56037;SDS011;41907;47.848;9.000;2023-02-13T01:27:47;34.45;;;15.30;;
56037;SDS011;41907;47.848;9.000;2023-02-13T01:30:12;35.92;;;15.23;;
56037;SDS011;41907;47.848;9.000;2023-02-13T01:32:40;38.67;;;15.20;;
56037;SDS011;41907;47.848;9.000;2023-02-13T01:35:06;33.88;;;15.63;;
56037;SDS011;41907;47.848;9.000;2023-02-13T01:37:32;38.33;;;15.80;;
56037;SDS011;41907;47.848;9.000;2023-02-13T01:39:58;33.60;;;15.88;;
56037;SDS011;41907;47.848;9.000;2023-02-13T01:42:28;34.42;;;15.00;;
56037;SDS011;41907;47.848;9.000;2023-02-13T01:44:57;39.75;;;17.52;;
56037;SDS011;41907;47.848;9.000;2023-02-13T01:53:06;33.42;;;15.25;;
56037;SDS011;41907;47.848;9.000;2023-02-13T01:55:38;40.53;;;15.13;;
56037;SDS011;41907;47.848;9.000;2023-02-13T01:58:19;37.53;;;15.57;;
56037;SDS011;41907;47.848;9.000;2023-02-13T02:00:48;38.30;;;16.17;;
56037;SDS011;41907;47.848;9.000;2023-02-13T02:05:51;36.47;;;14.95;;
56037;SDS011;41907;47.848;9.000;2023-02-13T02:08:21;38.67;;;15.80;;
56037;SDS011;41907;47.848;9.000;2023-02-13T02:10:47;37.22;;;15.55;;
56037;SDS011;41907;47.848;9.000;2023-02-13T02:13:14;38.67;;;16.13;;
56037;SDS011;41907;47.848;9.000;2023-02-13T02:15:44;41.72;;;16.77;;
56037;SDS011;41907;47.848;9.000;2023-02-13T02:21:49;39.05;;;17.42;;
56037;SDS011;41907;47.848;9.000;2023-02-13T02:40:22;39.55;;;16.25;;
56037;SDS011;41907;47.848;9.000;2023-02-13T02:43:11;37.47;;;15.82;;
56037;SDS011;41907;47.848;9.000;2023-02-13T02:48:21;36.70;;;15.88;;
56037;SDS011;41907;47.848;9.000;2023-02-13T02:51:25;33.88;;;15.32;;
56037;SDS011;41907;47.848;9.000;2023-02-13T02:56:30;37.08;;;15.40;;
56037;SDS011;41907;47.848;9.000;2023-02-13T02:59:04;36.08;;;15.88;;
56037;SDS011;41907;47.848;9.000;2023-02-13T03:01:53;35.90;;;15.70;;
56037;SDS011;41907;47.848;9.000;2023-02-13T03:07:33;32.60;;;14.73;;
56037;SDS011;41907;47.848;9.000;2023-02-13T03:09:59;31.75;;;15.45;;
56037;SDS011;41907;47.848;9.000;2023-02-13T03:12:48;33.45;;;15.35;;
56037;SDS011;41907;47.848;9.000;2023-02-13T03:15:39;28.73;;;13.90;;
56037;SDS011;41907;47.848;9.000;2023-02-13T03:18:26;29.77;;;14.13;;
56037;SDS011;41907;47.848;9.000;2023-02-13T03:21:15;31.85;;;14.55;;
56037;SDS011;41907;47.848;9.000;2023-02-13T03:24:12;30.42;;;13.65;;
56037;SDS011;41907;47.848;9.000;2023-02-13T03:27:05;34.45;;;14.73;;
56037;SDS011;41907;47.848;9.000;2023-02-13T03:29:39;34.80;;;14.95;;
56037;SDS011;41907;47.848;9.000;2023-02-13T03:35:46;28.95;;;13.90;;
56037;SDS011;41907;47.848;9.000;2023-02-13T03:46:28;33.95;;;14.68;;
56037;SDS011;41907;47.848;9.000;2023-02-13T03:49:06;29.02;;;13.27;;
56037;SDS011;41907;47.848;9.000;2023-02-13T03:51:58;33.78;;;14.88;;
56037;SDS011;41907;47.848;9.000;2023-02-13T03:54:31;30.08;;;14.55;;
56037;SDS011;41907;47.848;9.000;2023-02-13T03:57:20;33.22;;;14.30;;
56037;SDS011;41907;47.848;9.000;2023-02-13T04:00:08;38.40;;;14.95;;
56037;SDS011;41907;47.848;9.000;2023-02-13T04:02:38;33.55;;;15.32;;
56037;SDS011;41907;47.848;9.000;2023-02-13T04:05:16;32.25;;;14.68;;
56037;SDS011;41907;47.848;9.000;2023-02-13T04:07:45;30.50;;;13.85;;
56037;SDS011;41907;47.848;9.000;2023-02-13T04:10:12;28.95;;;13.30;;
56037;SDS011;41907;47.848;9.000;2023-02-13T04:15:41;31.10;;;14.57;;
56037;SDS011;41907;47.848;9.000;2023-02-13T04:18:13;34.90;;;15.15;;
56037;SDS011;41907;47.848;9.000;2023-02-13T04:20:43;31.80;;;15.88;;
56037;SDS011;41907;47.848;9.000;2023-02-13T04:23:09;36.40;;;15.73;;
56037;SDS011;41907;47.848;9.000;2023-02-13T04:25:36;28.33;;;13.70;;
56037;SDS011;41907;47.848;9.000;2023-02-13T04:28:04;28.77;;;14.05;;
56037;SDS011;41907;47.848;9.000;2023-02-13T04:30:30;34.33;;;15.00;;
56037;SDS011;41907;47.848;9.000;2023-02-13T04:32:56;34.70;;;14.63;;
56037;SDS011;41907;47.848;9.000;2023-02-13T04:35:21;31.30;;;14.02;;
56037;SDS011;41907;47.848;9.000;2023-02-13T04:37:47;32.75;;;14.43;;
56037;SDS011;41907;47.848;9.000;2023-02-13T04:40:12;29.63;;;13.60;;
56037;SDS011;41907;47.848;9.000;2023-02-13T04:42:41;33.05;;;14.00;;
56037;SDS011;41907;47.848;9.000;2023-02-13T04:45:06;30.35;;;13.88;;
56037;SDS011;41907;47.848;9.000;2023-02-13T04:47:32;33.75;;;14.27;;
56037;SDS011;41907;47.848;9.000;2023-02-13T04:49:57;29.48;;;13.98;;
56037;SDS011;41907;47.848;9.000;2023-02-13T04:52:22;30.70;;;12.60;;
56037;SDS011;41907;47.848;9.000;2023-02-13T04:54:48;30.77;;;13.55;;
56037;SDS011;41907;47.848;9.000;2023-02-13T04:57:13;28.23;;;13.13;;
56037;SDS011;41907;47.848;9.000;2023-02-13T04:59:39;31.45;;;13.50;;
56037;SDS011;41907;47.848;9.000;2023-02-13T05:02:04;29.90;;;12.82;;
56037;SDS011;41907;47.848;9.000;2023-02-13T05:04:30;26.40;;;13.23;;
56037;SDS011;41907;47.848;9.000;2023-02-13T05:06:55;28.02;;;12.82;;
56037;SDS011;41907;47.848;9.000;2023-02-13T05:09:21;26.23;;;12.45;;
56037;SDS011;41907;47.848;9.000;2023-02-13T05:11:46;27.60;;;13.63;;
56037;SDS011;41907;47.848;9.000;2023-02-13T05:14:14;26.63;;;13.65;;
56037;SDS011;41907;47.848;9.000;2023-02-13T05:16:39;29.48;;;12.15;;
56037;SDS011;41907;47.848;9.000;2023-02-13T05:19:05;25.30;;;13.10;;
56037;SDS011;41907;47.848;9.000;2023-02-13T05:21:30;29.77;;;13.52;;
56037;SDS011;41907;47.848;9.000;2023-02-13T05:24:14;31.35;;;13.77;;
56037;SDS011;41907;47.848;9.000;2023-02-13T05:26:39;29.90;;;12.98;;
56037;SDS011;41907;47.848;9.000;2023-02-13T05:29:05;31.15;;;13.30;;
56037;SDS011;41907;47.848;9.000;2023-02-13T05:31:42;30.25;;;13.40;;
56037;SDS011;41907;47.848;9.000;2023-02-13T05:34:08;30.83;;;13.55;;
56037;SDS011;41907;47.848;9.000;2023-02-13T05:36:33;31.23;;;13.90;;
56037;SDS011;41907;47.848;9.000;2023-02-13T05:38:59;33.60;;;14.00;;
56037;SDS011;41907;47.848;9.000;2023-02-13T05:41:24;33.20;;;14.73;;
56037;SDS011;41907;47.848;9.000;2023-02-13T05:43:49;29.55;;;13.50;;
56037;SDS011;41907;47.848;9.000;2023-02-13T05:46:15;28.30;;;13.13;;
56037;SDS011;41907;47.848;9.000;2023-02-13T05:48:40;29.50;;;13.27;;
56037;SDS011;41907;47.848;9.000;2023-02-13T05:51:06;29.02;;;12.95;;
56037;SDS011;41907;47.848;9.000;2023-02-13T05:53:31;28.48;;;13.93;;
56037;SDS011;41907;47.848;9.000;2023-02-13T05:55:59;27.88;;;12.98;;
56037;SDS011;41907;47.848;9.000;2023-02-13T05:58:25;31.70;;;13.48;;
56037;SDS011;41907;47.848;9.000;2023-02-13T06:00:54;27.27;;;12.65;;
56037;SDS011;41907;47.848;9.000;2023-02-13T06:03:20;27.70;;;13.25;;
56037;SDS011;41907;47.848;9.000;2023-02-13T06:05:47;28.55;;;12.98;;
56037;SDS011;41907;47.848;9.000;2023-02-13T06:08:12;26.25;;;13.00;;
56037;SDS011;41907;47.848;9.000;2023-02-13T06:10:37;34.28;;;13.93;;
56037;SDS011;41907;47.848;9.000;2023-02-13T06:13:03;30.20;;;13.73;;
56037;SDS011;41907;47.848;9.000;2023-02-13T06:15:28;29.77;;;13.52;;
56037;SDS011;41907;47.848;9.000;2023-02-13T06:17:54;29.70;;;13.88;;
56037;SDS011;41907;47.848;9.000;2023-02-13T06:20:19;31.13;;;14.15;;
56037;SDS011;41907;47.848;9.000;2023-02-13T06:22:46;31.48;;;13.93;;
56037;SDS011;41907;47.848;9.000;2023-02-13T06:25:13;28.48;;;14.05;;
56037;SDS011;41907;47.848;9.000;2023-02-13T06:27:39;30.75;;;14.23;;
56037;SDS011;41907;47.848;9.000;2023-02-13T06:30:04;27.13;;;12.85;;
56037;SDS011;41907;47.848;9.000;2023-02-13T06:32:30;27.02;;;12.73;;
56037;SDS011;41907;47.848;9.000;2023-02-13T06:34:55;31.23;;;13.35;;
56037;SDS011;41907;47.848;9.000;2023-02-13T06:37:20;34.15;;;13.82;;
56037;SDS011;41907;47.848;9.000;2023-02-13T06:39:46;31.45;;;14.30;;
56037;SDS011;41907;47.848;9.000;2023-02-13T06:42:11;31.42;;;14.20;;
56037;SDS011;41907;47.848;9.000;2023-02-13T06:44:36;29.80;;;13.85;;
56037;SDS011;41907;47.848;9.000;2023-02-13T06:47:02;32.55;;;14.85;;
56037;SDS011;41907;47.848;9.000;2023-02-13T06:49:27;30.50;;;14.18;;
56037;SDS011;41907;47.848;9.000;2023-02-13T06:51:52;35.58;;;15.10;;
56037;SDS011;41907;47.848;9.000;2023-02-13T06:54:18;34.60;;;15.45;;
56037;SDS011;41907;47.848;9.000;2023-02-13T06:56:43;36.35;;;15.60;;
56037;SDS011;41907;47.848;9.000;2023-02-13T06:59:08;36.17;;;16.35;;
56037;SDS011;41907;47.848;9.000;2023-02-13T07:01:34;35.00;;;14.85;;
56037;SDS011;41907;47.848;9.000;2023-02-13T07:03:59;41.85;;;16.38;;
56037;SDS011;41907;47.848;9.000;2023-02-13T07:06:24;37.67;;;16.15;;
56037;SDS011;41907;47.848;9.000;2023-02-13T07:08:50;31.25;;;14.48;;
56037;SDS011;41907;47.848;9.000;2023-02-13T07:11:19;37.70;;;15.63;;
56037;SDS011;41907;47.848;9.000;2023-02-13T07:13:45;30.33;;;14.88;;
56037;SDS011;41907;47.848;9.000;2023-02-13T07:16:11;32.08;;;15.32;;
56037;SDS011;41907;47.848;9.000;2023-02-13T07:18:36;36.72;;;15.10;;
56037;SDS011;41907;47.848;9.000;2023-02-13T07:21:02;28.35;;;12.70;;
56037;SDS011;41907;47.848;9.000;2023-02-13T07:23:27;28.95;;;14.23;;
56037;SDS011;41907;47.848;9.000;2023-02-13T07:25:52;32.13;;;12.95;;
56037;SDS011;41907;47.848;9.000;2023-02-13T07:28:18;33.15;;;14.60;;
56037;SDS011;41907;47.848;9.000;2023-02-13T07:30:43;33.40;;;15.27;;
56037;SDS011;41907;47.848;9.000;2023-02-13T07:33:08;30.05;;;14.57;;
56037;SDS011;41907;47.848;9.000;2023-02-13T07:35:34;36.17;;;16.33;;
56037;SDS011;41907;47.848;9.000;2023-02-13T07:38:01;32.63;;;15.15;;
56037;SDS011;41907;47.848;9.000;2023-02-13T07:40:27;32.28;;;13.43;;
56037;SDS011;41907;47.848;9.000;2023-02-13T07:42:53;39.05;;;15.23;;
56037;SDS011;41907;47.848;9.000;2023-02-13T07:45:18;33.95;;;14.60;;
56037;SDS011;41907;47.848;9.000;2023-02-13T07:47:44;34.53;;;15.63;;
56037;SDS011;41907;47.848;9.000;2023-02-13T07:50:09;38.53;;;16.08;;
56037;SDS011;41907;47.848;9.000;2023-02-13T07:52:35;37.00;;;15.05;;
56037;SDS011;41907;47.848;9.000;2023-02-13T07:55:01;41.65;;;15.50;;
56037;SDS011;41907;47.848;9.000;2023-02-13T07:57:27;39.55;;;15.82;;
56037;SDS011;41907;47.848;9.000;2023-02-13T07:59:52;41.47;;;16.63;;
56037;SDS011;41907;47.848;9.000;2023-02-13T08:02:18;46.25;;;17.63;;
56037;SDS011;41907;47.848;9.000;2023-02-13T08:04:43;48.13;;;17.95;;
56037;SDS011;41907;47.848;9.000;2023-02-13T08:07:15;47.90;;;18.35;;
56037;SDS011;41907;47.848;9.000;2023-02-13T08:09:43;47.65;;;18.73;;
56037;SDS011;41907;47.848;9.000;2023-02-13T08:12:28;53.50;;;19.92;;
56037;SDS011;41907;47.848;9.000;2023-02-13T08:14:54;49.03;;;17.48;;
56037;SDS011;41907;47.848;9.000;2023-02-13T08:17:19;59.25;;;21.13;;
56037;SDS011;41907;47.848;9.000;2023-02-13T08:19:44;56.72;;;19.65;;
56037;SDS011;41907;47.848;9.000;2023-02-13T08:22:10;62.83;;;21.17;;
56037;SDS011;41907;47.848;9.000;2023-02-13T08:24:35;65.05;;;21.35;;
56037;SDS011;41907;47.848;9.000;2023-02-13T08:27:00;71.90;;;23.98;;
56037;SDS011;41907;47.848;9.000;2023-02-13T08:29:26;58.63;;;21.23;;
56037;SDS011;41907;47.848;9.000;2023-02-13T08:31:51;73.40;;;23.23;;
56037;SDS011;41907;47.848;9.000;2023-02-13T08:34:16;64.40;;;22.98;;
56037;SDS011;41907;47.848;9.000;2023-02-13T08:36:42;61.22;;;22.83;;
56037;SDS011;41907;47.848;9.000;2023-02-13T08:39:08;68.53;;;22.63;;
56037;SDS011;41907;47.848;9.000;2023-02-13T08:41:34;57.85;;;21.40;;
56037;SDS011;41907;47.848;9.000;2023-02-13T08:43:59;61.15;;;21.10;;
56037;SDS011;41907;47.848;9.000;2023-02-13T08:46:24;59.65;;;21.70;;
56037;SDS011;41907;47.848;9.000;2023-02-13T08:48:50;57.45;;;18.67;;
56037;SDS011;41907;47.848;9.000;2023-02-13T08:51:15;51.20;;;18.55;;
56037;SDS011;41907;47.848;9.000;2023-02-13T08:53:41;57.28;;;18.92;;
56037;SDS011;41907;47.848;9.000;2023-02-13T08:56:07;53.42;;;19.17;;
56037;SDS011;41907;47.848;9.000;2023-02-13T08:58:32;43.55;;;16.55;;
56037;SDS011;41907;47.848;9.000;2023-02-13T09:00:57;47.03;;;18.52;;
56037;SDS011;41907;47.848;9.000;2023-02-13T09:03:23;42.58;;;17.20;;
56037;SDS011;41907;47.848;9.000;2023-02-13T09:05:48;47.92;;;18.75;;
56037;SDS011;41907;47.848;9.000;2023-02-13T09:08:14;38.72;;;16.55;;
56037;SDS011;41907;47.848;9.000;2023-02-13T09:10:40;46.50;;;17.65;;
56037;SDS011;41907;47.848;9.000;2023-02-13T09:13:08;41.28;;;15.48;;
56037;SDS011;41907;47.848;9.000;2023-02-13T09:15:33;41.58;;;17.23;;
56037;SDS011;41907;47.848;9.000;2023-02-13T09:18:03;42.83;;;16.92;;
56037;SDS011;41907;47.848;9.000;2023-02-13T09:20:28;43.78;;;18.23;;
56037;SDS011;41907;47.848;9.000;2023-02-13T09:22:54;33.88;;;14.85;;
56037;SDS011;41907;47.848;9.000;2023-02-13T09:25:20;43.03;;;17.17;;
56037;SDS011;41907;47.848;9.000;2023-02-13T09:27:46;39.97;;;15.60;;
56037;SDS011;41907;47.848;9.000;2023-02-13T09:30:12;38.83;;;17.30;;
56037;SDS011;41907;47.848;9.000;2023-02-13T09:32:46;43.83;;;17.40;;
56037;SDS011;41907;47.848;9.000;2023-02-13T09:35:12;38.88;;;14.98;;
56037;SDS011;41907;47.848;9.000;2023-02-13T09:37:38;39.22;;;16.33;;
56037;SDS011;41907;47.848;9.000;2023-02-13T09:40:05;37.13;;;15.85;;
56037;SDS011;41907;47.848;9.000;2023-02-13T09:42:34;34.67;;;14.95;;
56037;SDS011;41907;47.848;9.000;2023-02-13T09:45:02;34.90;;;16.27;;
56037;SDS011;41907;47.848;9.000;2023-02-13T09:50:16;37.88;;;15.65;;
56037;SDS011;41907;47.848;9.000;2023-02-13T09:52:46;37.35;;;15.82;;
56037;SDS011;41907;47.848;9.000;2023-02-13T09:57:41;39.33;;;16.35;;
56037;SDS011;41907;47.848;9.000;2023-02-13T10:10:51;34.45;;;15.70;;
56037;SDS011;41907;47.848;9.000;2023-02-13T10:16:08;37.72;;;15.50;;
56037;SDS011;41907;47.848;9.000;2023-02-13T10:18:42;33.42;;;14.82;;
56037;SDS011;41907;47.848;9.000;2023-02-13T10:21:09;41.38;;;17.55;;
56037;SDS011;41907;47.848;9.000;2023-02-13T10:23:44;40.65;;;16.20;;
56037;SDS011;41907;47.848;9.000;2023-02-13T10:26:17;42.22;;;17.65;;
56037;SDS011;41907;47.848;9.000;2023-02-13T10:29:03;35.97;;;16.38;;
56037;SDS011;41907;47.848;9.000;2023-02-13T10:31:52;38.25;;;17.08;;
56037;SDS011;41907;47.848;9.000;2023-02-13T10:34:21;45.05;;;16.92;;
56037;SDS011;41907;47.848;9.000;2023-02-13T10:36:50;39.70;;;16.58;;
56037;SDS011;41907;47.848;9.000;2023-02-13T10:39:26;47.17;;;21.85;;
56037;SDS011;41907;47.848;9.000;2023-02-13T10:41:54;36.25;;;17.08;;
56037;SDS011;41907;47.848;9.000;2023-02-13T10:47:33;37.50;;;16.70;;
56037;SDS011;41907;47.848;9.000;2023-02-13T10:53:20;39.47;;;17.15;;
56037;SDS011;41907;47.848;9.000;2023-02-13T11:01:22;39.83;;;16.55;;
56037;SDS011;41907;47.848;9.000;2023-02-13T11:04:06;38.83;;;16.75;;
56037;SDS011;41907;47.848;9.000;2023-02-13T11:06:37;39.58;;;18.13;;
56037;SDS011;41907;47.848;9.000;2023-02-13T11:09:06;41.65;;;20.08;;
56037;SDS011;41907;47.848;9.000;2023-02-13T11:11:36;41.03;;;17.58;;
56037;SDS011;41907;47.848;9.000;2023-02-13T11:22:08;43.08;;;20.13;;
56037;SDS011;41907;47.848;9.000;2023-02-13T11:24:38;41.85;;;18.20;;
56037;SDS011;41907;47.848;9.000;2023-02-13T11:27:07;38.95;;;17.45;;
56037;SDS011;41907;47.848;9.000;2023-02-13T11:29:49;36.60;;;16.95;;
56037;SDS011;41907;47.848;9.000;2023-02-13T11:32:27;42.75;;;17.05;;
56037;SDS011;41907;47.848;9.000;2023-02-13T11:34:55;39.85;;;16.20;;
56037;SDS011;41907;47.848;9.000;2023-02-13T11:39:57;43.13;;;18.48;;
56037;SDS011;41907;47.848;9.000;2023-02-13T11:44:53;40.90;;;18.35;;
56037;SDS011;41907;47.848;9.000;2023-02-13T11:47:33;41.72;;;19.58;;
56037;SDS011;41907;47.848;9.000;2023-02-13T11:50:27;41.20;;;19.05;;
56037;SDS011;41907;47.848;9.000;2023-02-13T11:53:15;42.85;;;19.08;;
56037;SDS011;41907;47.848;9.000;2023-02-13T11:55:59;52.80;;;22.42;;
56037;SDS011;41907;47.848;9.000;2023-02-13T11:58:31;57.17;;;23.88;;
56037;SDS011;41907;47.848;9.000;2023-02-13T12:03:44;44.72;;;21.58;;
56037;SDS011;41907;47.848;9.000;2023-02-13T12:06:31;58.65;;;24.33;;
56037;SDS011;41907;47.848;9.000;2023-02-13T12:09:03;58.28;;;23.10;;
56037;SDS011;41907;47.848;9.000;2023-02-13T12:11:45;43.08;;;19.88;;
56037;SDS011;41907;47.848;9.000;2023-02-13T12:14:20;36.88;;;16.90;;
56037;SDS011;41907;47.848;9.000;2023-02-13T12:16:49;37.05;;;16.85;;
56037;SDS011;41907;47.848;9.000;2023-02-13T12:19:21;63.03;;;27.63;;
56037;SDS011;41907;47.848;9.000;2023-02-13T12:21:57;58.17;;;27.80;;
56037;SDS011;41907;47.848;9.000;2023-02-13T12:27:33;72.32;;;32.28;;
56037;SDS011;41907;47.848;9.000;2023-02-13T12:32:50;43.13;;;20.92;;
56037;SDS011;41907;47.848;9.000;2023-02-13T12:38:10;44.17;;;21.73;;
56037;SDS011;41907;47.848;9.000;2023-02-13T12:40:47;40.28;;;20.50;;
56037;SDS011;41907;47.848;9.000;2023-02-13T12:46:15;40.10;;;20.42;;
56037;SDS011;41907;47.848;9.000;2023-02-13T12:55:33;43.25;;;20.88;;
56037;SDS011;41907;47.848;9.000;2023-02-13T13:06:07;70.55;;;30.50;;
56037;SDS011;41907;47.848;9.000;2023-02-13T13:08:57;77.32;;;33.13;;
56037;SDS011;41907;47.848;9.000;2023-02-13T13:14:19;101.43;;;38.42;;
56037;SDS011;41907;47.848;9.000;2023-02-13T13:27:31;85.45;;;35.72;;
56037;SDS011;41907;47.848;9.000;2023-02-13T13:30:04;75.82;;;32.58;;
56037;SDS011;41907;47.848;9.000;2023-02-13T13:32:37;76.70;;;31.42;;
56037;SDS011;41907;47.848;9.000;2023-02-13T13:35:05;65.47;;;30.75;;
56037;SDS011;41907;47.848;9.000;2023-02-13T13:37:45;69.22;;;31.13;;
56037;SDS011;41907;47.848;9.000;2023-02-13T13:45:41;51.70;;;24.20;;
56037;SDS011;41907;47.848;9.000;2023-02-13T13:50:58;60.63;;;25.10;;
56037;SDS011;41907;47.848;9.000;2023-02-13T13:53:24;57.38;;;26.60;;
56037;SDS011;41907;47.848;9.000;2023-02-13T14:03:45;64.07;;;27.88;;
56037;SDS011;41907;47.848;9.000;2023-02-13T14:06:19;54.95;;;24.23;;
56037;SDS011;41907;47.848;9.000;2023-02-13T14:08:54;57.55;;;24.13;;
56037;SDS011;41907;47.848;9.000;2023-02-13T14:13:50;61.38;;;27.05;;
56037;SDS011;41907;47.848;9.000;2023-02-13T14:19:19;50.90;;;25.15;;
56037;SDS011;41907;47.848;9.000;2023-02-13T14:21:47;50.90;;;23.25;;
56037;SDS011;41907;47.848;9.000;2023-02-13T14:24:13;50.17;;;22.13;;
56037;SDS011;41907;47.848;9.000;2023-02-13T14:26:48;50.22;;;23.05;;
56037;SDS011;41907;47.848;9.000;2023-02-13T14:29:20;46.97;;;21.27;;
56037;SDS011;41907;47.848;9.000;2023-02-13T14:31:56;53.65;;;22.98;;
56037;SDS011;41907;47.848;9.000;2023-02-13T14:34:23;50.25;;;23.67;;
56037;SDS011;41907;47.848;9.000;2023-02-13T14:37:06;49.72;;;22.73;;
56037;SDS011;41907;47.848;9.000;2023-02-13T14:45:01;47.75;;;21.23;;
56037;SDS011;41907;47.848;9.000;2023-02-13T14:47:36;50.72;;;24.15;;
56037;SDS011;41907;47.848;9.000;2023-02-13T14:50:07;43.00;;;19.98;;
56037;SDS011;41907;47.848;9.000;2023-02-13T14:52:42;46.15;;;22.02;;
56037;SDS011;41907;47.848;9.000;2023-02-13T14:55:16;45.00;;;19.90;;
56037;SDS011;41907;47.848;9.000;2023-02-13T14:58:04;46.35;;;23.23;;
56037;SDS011;41907;47.848;9.000;2023-02-13T15:03:10;47.95;;;19.85;;
56037;SDS011;41907;47.848;9.000;2023-02-13T15:05:48;41.55;;;19.65;;
56037;SDS011;41907;47.848;9.000;2023-02-13T15:08:18;42.10;;;18.95;;
56037;SDS011;41907;47.848;9.000;2023-02-13T15:10:48;42.15;;;20.48;;
56037;SDS011;41907;47.848;9.000;2023-02-13T15:13:20;36.42;;;18.48;;
56037;SDS011;41907;47.848;9.000;2023-02-13T15:15:52;40.88;;;19.42;;
56037;SDS011;41907;47.848;9.000;2023-02-13T15:18:27;38.60;;;17.77;;
56037;SDS011;41907;47.848;9.000;2023-02-13T15:20:59;37.92;;;18.17;;
56037;SDS011;41907;47.848;9.000;2023-02-13T15:23:27;42.13;;;18.70;;
56037;SDS011;41907;47.848;9.000;2023-02-13T15:25:55;37.55;;;17.08;;
56037;SDS011;41907;47.848;9.000;2023-02-13T15:28:31;38.95;;;19.13;;
56037;SDS011;41907;47.848;9.000;2023-02-13T15:30:59;46.88;;;19.17;;
56037;SDS011;41907;47.848;9.000;2023-02-13T15:33:44;43.08;;;20.23;;
56037;SDS011;41907;47.848;9.000;2023-02-13T15:36:21;40.88;;;18.75;;
56037;SDS011;41907;47.848;9.000;2023-02-13T15:38:58;38.47;;;17.92;;
56037;SDS011;41907;47.848;9.000;2023-02-13T15:41:32;44.08;;;20.67;;
56037;SDS011;41907;47.848;9.000;2023-02-13T15:44:27;41.53;;;18.83;;
56037;SDS011;41907;47.848;9.000;2023-02-13T15:46:56;40.53;;;18.65;;
56037;SDS011;41907;47.848;9.000;2023-02-13T15:49:28;44.97;;;19.80;;
56037;SDS011;41907;47.848;9.000;2023-02-13T15:52:29;41.50;;;18.70;;
56037;SDS011;41907;47.848;9.000;2023-02-13T15:54:57;40.58;;;18.00;;
56037;SDS011;41907;47.848;9.000;2023-02-13T15:57:23;41.80;;;18.42;;
56037;SDS011;41907;47.848;9.000;2023-02-13T15:59:50;37.28;;;17.90;;
56037;SDS011;41907;47.848;9.000;2023-02-13T16:02:19;48.97;;;18.67;;
56037;SDS011;41907;47.848;9.000;2023-02-13T16:04:48;43.42;;;19.15;;
56037;SDS011;41907;47.848;9.000;2023-02-13T16:07:16;44.97;;;19.38;;
56037;SDS011;41907;47.848;9.000;2023-02-13T16:09:42;40.80;;;18.05;;
56037;SDS011;41907;47.848;9.000;2023-02-13T16:12:21;46.30;;;18.50;;
56037;SDS011;41907;47.848;9.000;2023-02-13T16:14:52;46.97;;;19.67;;
56037;SDS011;41907;47.848;9.000;2023-02-13T16:20:05;47.50;;;19.98;;
56037;SDS011;41907;47.848;9.000;2023-02-13T16:22:45;45.97;;;19.05;;
56037;SDS011;41907;47.848;9.000;2023-02-13T16:27:39;43.58;;;18.40;;
56037;SDS011;41907;47.848;9.000;2023-02-13T16:30:17;43.90;;;19.35;;
56037;SDS011;41907;47.848;9.000;2023-02-13T16:33:08;48.53;;;19.77;;
56037;SDS011;41907;47.848;9.000;2023-02-13T16:35:58;44.60;;;18.40;;
56037;SDS011;41907;47.848;9.000;2023-02-13T16:38:37;43.08;;;18.38;;
56037;SDS011;41907;47.848;9.000;2023-02-13T16:46:19;50.50;;;21.00;;
56037;SDS011;41907;47.848;9.000;2023-02-13T16:48:57;55.00;;;21.67;;
56037;SDS011;41907;47.848;9.000;2023-02-13T16:53:57;54.47;;;20.88;;
56037;SDS011;41907;47.848;9.000;2023-02-13T16:56:24;48.30;;;20.15;;
56037;SDS011;41907;47.848;9.000;2023-02-13T16:58:51;51.65;;;21.10;;
56037;SDS011;41907;47.848;9.000;2023-02-13T17:07:40;49.83;;;21.17;;
56037;SDS011;41907;47.848;9.000;2023-02-13T17:12:55;49.28;;;20.58;;
56037;SDS011;41907;47.848;9.000;2023-02-13T17:15:27;56.72;;;24.38;;
56037;SDS011;41907;47.848;9.000;2023-02-13T17:17:54;56.67;;;23.63;;
56037;SDS011;41907;47.848;9.000;2023-02-13T17:20:21;58.75;;;24.92;;
56037;SDS011;41907;47.848;9.000;2023-02-13T17:22:49;71.07;;;29.60;;
56037;SDS011;41907;47.848;9.000;2023-02-13T17:25:20;71.03;;;27.65;;
56037;SDS011;41907;47.848;9.000;2023-02-13T17:28:13;58.65;;;27.00;;
56037;SDS011;41907;47.848;9.000;2023-02-13T17:30:38;49.70;;;21.73;;
56037;SDS011;41907;47.848;9.000;2023-02-13T17:33:05;52.58;;;22.67;;
56037;SDS011;41907;47.848;9.000;2023-02-13T17:35:35;52.20;;;21.38;;
56037;SDS011;41907;47.848;9.000;2023-02-13T17:38:01;53.63;;;21.15;;
56037;SDS011;41907;47.848;9.000;2023-02-13T17:40:26;45.28;;;19.85;;
56037;SDS011;41907;47.848;9.000;2023-02-13T17:42:54;44.47;;;19.63;;
56037;SDS011;41907;47.848;9.000;2023-02-13T17:45:22;48.40;;;20.58;;